Venice, FL

4:44 PM EDT on July 29, 2016 (GMT -0400)
APRSWXNET | | Change Station

Elev 9 ft 27.00 °N, 82.39 °W | Updated 28 minutes ago

Clear
Clear
92 °F
Feels Like 114 °F
N
0
Wind Variable Wind from SE
Gusts 4.0 mph

Today
High -- | Low -- °F
--% Chance of Precip.
Yesterday
High -- | Low -- °F
Precip. -- in
Pressure 30.02 in
Visibility 10.0 miles
Clouds Clear
Heat Index 114 °F
Dew Point 82 °F
Humidity 72%
Rainfall in
Snow Depth Not available.
6:52 AM 8:19 PM
Waning Crescent, 19% visible
METAR KSRQ 291953Z AUTO 00000KT 10SM CLR 27/23 A3002 RMK AO2 RAE1859 SLP165 P0000 T02720233
Pressure 30.02 in
Visibility 10.0 miles
Clouds Clear
Heat Index 114 °F
Dew Point 82 °F
Humidity 72%
Rainfall in
Snow Depth Not available.
6:52 AM 8:19 PM
Waning Crescent, 19% visible
METAR KSRQ 291953Z AUTO 00000KT 10SM CLR 27/23 A3002 RMK AO2 RAE1859 SLP165 P0000 T02720233

10-Day Weather Forecast

Almanac

Astronomy

Jul. 29, 2016 Rise Set
Actual Time
Civil Twilight
Nautical Twilight
Astronomical Twilight
Moon
Length of Visible Light
Length of Day
Tomorrow will be .
, % of the Moon is Illuminated

Today's Extremes

State Highs State Lows

Community

WunderPhotos

Upload Photos

1,928,411 photos uploaded!

WunderBlog® & News

Nearby

Air Quality

  Air Quality AQ Index Pollutant
Not available.

Snow Depth

Station Depth Elevation

Earthquake Activity

City Distance Mag. Time & Date
Minimum magnitude displayed is 2.5.

Coastal Water Temperatures

Place Temperature

Stations

Nearby Weather Stations

Station Location Temp. Windchill Dew Point Humidity Wind Precip. Elev Updated Type
                   

Watches & Warnings

There are currently no watches in effect.